Sapporo, Japan

10:00 AM JST on May 29, 2015 (GMT +0900)
New Chitose | | Change Station
CLOSE
Current Station
Airport
Location: Chitose AB,
Elevation: 98 ft
Nearby Weather Stations

Elev 98 ft 42.77 °N, 141.69 °E | Updated 10 minutes ago

Mostly Cloudy
Mostly Cloudy
59 °F
Feels Like 59 °F
N
14
Wind Variable Wind from South

Today
High -- | Low -- °F
--% Chance of Precip.
Yesterday
High -- | Low -- °F
Precip. -- in
4:00 AM 7:04 PM
Waxing Gibbous, 79% visible
Pressure 29.86 in
Visibility 5.6 miles
Clouds Few 400 ft
Scattered Clouds 500 ft
Mostly Cloudy 600 ft
Dew Point 54 °F
Humidity 82%
Rainfall 0.00 in
Snow Depth Not available.
UV 4 out of 12
Pollen Not available.
Air Quality Not available.
Flu Activity Not available.
SPECI RJCC 290050Z 18012KT 9000 FEW004 SCT005 BKN006 15/12 Q1011 RMK 1ST004 4ST005 7ST006 A2987

More Conditions Fewer Conditions

Pressure 29.86 in
Visibility 5.6 miles
Clouds Few 400 ft
Scattered Clouds 500 ft
Mostly Cloudy 600 ft
Dew Point 54 °F
Humidity 82%
Rainfall 0.00 in
Snow Depth Not available.
UV 4 out of 12
Pollen Not available.
Air Quality Not available.
Flu Activity Not available.
SPECI RJCC 290050Z 18012KT 9000 FEW004 SCT005 BKN006 15/12 Q1011 RMK 1ST004 4ST005 7ST006 A2987

More Conditions Fewer Conditions

10-Day Weather Forecast

Almanac

Astronomy

May. 29, 2015 Rise Set
Actual Time
Civil Twilight
Nautical Twilight
Astronomical Twilight
Moon
Length of Visible Light
Length of Day
Tomorrow will be .
, % of the Moon is Illuminated

Today's Extremes

Country Highs Country Lows

Community

WunderPhotos

Upload Photos

1,825,101 photos uploaded!

WunderBlogs® & News

Nearby

Air Quality

  Air Quality AQ Index Pollutant
Not available.

Snow Depth

Station Depth Elevation

Earthquake Activity

City Distance Mag. Time & Date
Minimum magnitude displayed is 2.5.

Coastal Water Temperatures

Place Temperature

Stations

Nearby Weather Stations

Station Location Temp. Windchill Dew Point Humidity Wind Precip. Elev Updated Type